createdAt,value
2022-12-26T00:02:23.426Z,41.80
2022-12-26T00:07:30.307Z,31.85
2022-12-26T00:12:35.396Z,39.20
2022-12-26T00:17:40.133Z,37.67
2022-12-26T00:22:45.701Z,33.75
2022-12-26T00:27:50.157Z,36.08
2022-12-26T00:32:55.695Z,33.72
2022-12-26T00:43:05.605Z,37.30
2022-12-26T00:48:10.228Z,33.43
2022-12-26T01:03:26.163Z,31.27
2022-12-26T01:08:31.995Z,32.67
2022-12-26T01:13:37.630Z,33.25
2022-12-26T01:18:42.253Z,32.95
2022-12-26T01:23:48.106Z,38.45
2022-12-26T01:28:54.019Z,35.53
2022-12-26T01:33:58.521Z,31.63
2022-12-26T01:39:04.951Z,39.22
2022-12-26T01:45:08.672Z,31.15
2022-12-26T01:50:28.974Z,30.77
2022-12-26T01:55:35.399Z,39.05
2022-12-26T02:00:40.714Z,29.92
2022-12-26T02:05:45.872Z,33.55
2022-12-26T02:15:58.749Z,32.20
2022-12-26T02:21:21.819Z,37.67
2022-12-26T02:27:37.543Z,35.67
2022-12-26T02:33:28.409Z,36.08
2022-12-26T02:38:40.785Z,40.58
2022-12-26T02:43:59.458Z,39.92
2022-12-26T02:49:16.773Z,34.60
2022-12-26T02:54:46.993Z,37.45
2022-12-26T03:00:16.552Z,37.00
2022-12-26T03:05:52.684Z,27.58
2022-12-26T03:11:16.885Z,31.83
2022-12-26T03:16:43.500Z,29.90
2022-12-26T03:21:49.454Z,26.15
2022-12-26T03:26:56.177Z,29.05
2022-12-26T03:32:04.847Z,30.20
2022-12-26T03:37:47.497Z,27.98
2022-12-26T03:43:22.897Z,25.45
2022-12-26T03:48:51.409Z,27.55
2022-12-26T03:54:24.480Z,27.38
2022-12-26T04:00:07.283Z,25.90
2022-12-26T04:05:36.403Z,25.05
2022-12-26T04:11:06.432Z,25.38
2022-12-26T04:16:37.006Z,21.92
2022-12-26T04:22:05.806Z,23.13
2022-12-26T04:27:34.783Z,22.02
2022-12-26T04:33:01.878Z,19.65
2022-12-26T04:38:25.157Z,19.80
2022-12-26T04:43:52.352Z,18.02
2022-12-26T04:49:19.052Z,22.95
2022-12-26T04:54:23.719Z,18.25
2022-12-26T04:59:29.921Z,19.85
2022-12-26T05:04:54.814Z,18.90
2022-12-26T05:09:59.057Z,19.85
2022-12-26T05:15:05.588Z,17.42
2022-12-26T05:20:32.440Z,15.05
2022-12-26T05:25:56.613Z,17.95
2022-12-26T05:31:06.065Z,12.60
2022-12-26T05:36:11.668Z,16.13
2022-12-26T05:41:18.397Z,20.90
2022-12-26T05:46:25.005Z,14.80
2022-12-26T05:51:29.885Z,12.80
2022-12-26T05:56:34.784Z,17.08
2022-12-26T06:01:40.699Z,16.10
2022-12-26T06:06:45.165Z,14.73
2022-12-26T06:11:50.507Z,15.25
2022-12-26T06:16:56.176Z,18.17
2022-12-26T06:22:00.790Z,13.93
2022-12-26T06:27:05.465Z,20.58
2022-12-26T06:37:15.422Z,15.55
2022-12-26T06:42:19.917Z,15.93
2022-12-26T06:47:26.108Z,15.75
2022-12-26T06:52:31.247Z,13.93
2022-12-26T06:57:35.653Z,18.48
2022-12-26T07:02:42.072Z,12.77
2022-12-26T07:07:53.424Z,13.50
2022-12-26T07:12:57.887Z,17.27
2022-12-26T07:18:03.476Z,19.58
2022-12-26T07:23:08.077Z,15.02
2022-12-26T07:33:18.671Z,17.52
2022-12-26T07:38:23.219Z,17.70
2022-12-26T07:43:27.876Z,15.70
2022-12-26T07:53:39.397Z,16.13
2022-12-26T07:58:44.090Z,17.67
2022-12-26T08:08:55.777Z,17.50
2022-12-26T08:14:00.058Z,18.10
2022-12-26T08:19:06.961Z,20.23
2022-12-26T08:24:11.617Z,19.48
2022-12-26T08:29:16.204Z,19.13
2022-12-26T08:34:22.734Z,18.17
2022-12-26T08:39:27.180Z,20.05
2022-12-26T08:44:31.580Z,24.10
2022-12-26T08:49:37.919Z,23.58
2022-12-26T08:54:42.320Z,20.20
2022-12-26T08:59:46.598Z,18.73
2022-12-26T09:04:52.678Z,19.25
2022-12-26T09:09:56.843Z,20.08
2022-12-26T09:15:01.463Z,24.77
2022-12-26T09:20:09.072Z,28.23
2022-12-26T09:25:13.820Z,25.63
2022-12-26T09:30:18.429Z,21.20
2022-12-26T09:35:24.054Z,28.05
2022-12-26T09:40:44.063Z,20.00
2022-12-26T09:46:00.639Z,21.75
2022-12-26T09:51:10.031Z,17.25
2022-12-26T09:57:01.363Z,19.75
2022-12-26T10:01:44.784Z,16.58
2022-12-26T10:06:59.213Z,21.05
2022-12-26T10:12:22.555Z,21.00
2022-12-26T10:17:39.865Z,18.80
2022-12-26T10:23:25.389Z,22.90
2022-12-26T10:28:39.698Z,22.95
2022-12-26T10:33:50.473Z,18.05
2022-12-26T10:38:58.122Z,17.95
2022-12-26T10:44:03.604Z,17.67
2022-12-26T10:49:12.235Z,20.33
2022-12-26T10:54:20.645Z,21.08
2022-12-26T10:59:41.846Z,21.00
2022-12-26T11:05:27.407Z,19.27
2022-12-26T11:10:38.893Z,19.20
2022-12-26T11:15:51.074Z,17.98
2022-12-26T11:20:55.878Z,16.65
2022-12-26T11:26:02.831Z,15.50
2022-12-26T11:31:18.201Z,17.10
2022-12-26T11:36:26.468Z,16.77
2022-12-26T11:41:40.021Z,17.33
2022-12-26T11:46:49.924Z,17.63
2022-12-26T11:51:59.595Z,15.98
2022-12-26T11:57:22.195Z,15.55
2022-12-26T12:02:30.358Z,13.60
2022-12-26T12:08:13.246Z,13.75
2022-12-26T12:13:46.644Z,14.75
2022-12-26T12:18:58.644Z,16.67
2022-12-26T12:24:43.149Z,19.92
2022-12-26T12:30:04.824Z,21.20
2022-12-26T12:35:49.814Z,15.60
2022-12-26T12:41:07.737Z,16.27
2022-12-26T12:46:26.899Z,14.68
2022-12-26T12:51:39.619Z,13.63
2022-12-26T12:56:55.707Z,18.00
2022-12-26T13:02:11.038Z,15.70
2022-12-26T13:07:23.107Z,17.75
2022-12-26T13:12:35.111Z,15.45
2022-12-26T13:17:54.623Z,14.80
2022-12-26T13:23:24.191Z,15.48
2022-12-26T13:28:34.205Z,16.58
2022-12-26T13:33:44.486Z,18.08
2022-12-26T13:39:45.558Z,15.63
2022-12-26T13:44:53.651Z,15.90
2022-12-26T13:49:59.713Z,15.18
2022-12-26T13:55:43.101Z,12.07
2022-12-26T14:00:49.623Z,14.60
2022-12-26T14:06:41.177Z,14.38
2022-12-26T14:12:07.887Z,14.30
2022-12-26T14:17:28.209Z,15.55
2022-12-26T14:22:48.565Z,18.25
2022-12-26T14:28:01.674Z,16.52
2022-12-26T14:33:25.604Z,15.75
2022-12-26T14:38:45.952Z,17.95
2022-12-26T14:43:56.267Z,20.35
2022-12-26T14:49:22.975Z,19.30
2022-12-26T14:54:50.845Z,18.45
2022-12-26T15:00:29.827Z,23.38
2022-12-26T15:05:37.965Z,21.70
2022-12-26T15:11:39.707Z,21.73
2022-12-26T15:17:08.927Z,17.25
2022-12-26T15:23:11.911Z,20.25
2022-12-26T15:28:53.421Z,18.77
2022-12-26T15:34:05.864Z,16.92
2022-12-26T15:39:25.750Z,17.20
2022-12-26T15:44:40.975Z,15.15
2022-12-26T15:50:05.030Z,16.88
2022-12-26T15:55:50.428Z,19.38
2022-12-26T16:00:57.296Z,19.02
2022-12-26T16:06:21.366Z,18.20
2022-12-26T16:11:31.169Z,16.85
2022-12-26T16:16:39.401Z,16.02
2022-12-26T16:22:06.075Z,19.45
2022-12-26T16:27:16.281Z,18.77
2022-12-26T16:32:28.604Z,16.35
2022-12-26T16:37:33.959Z,21.10
2022-12-26T16:42:38.386Z,18.25
2022-12-26T16:47:45.182Z,17.45
2022-12-26T16:52:50.799Z,18.83
2022-12-26T16:57:57.803Z,20.20
2022-12-26T17:03:23.027Z,15.85
2022-12-26T17:08:27.590Z,18.25
2022-12-26T17:13:36.780Z,15.63
2022-12-26T17:18:49.282Z,17.17
2022-12-26T17:24:26.414Z,17.48
2022-12-26T17:29:50.133Z,19.52
2022-12-26T17:35:00.331Z,15.10
2022-12-26T17:40:21.161Z,16.10
2022-12-26T17:45:29.835Z,15.10
2022-12-26T17:50:38.798Z,16.48
2022-12-26T17:55:43.450Z,18.48
2022-12-26T18:00:48.204Z,17.50
2022-12-26T18:11:02.048Z,18.15
2022-12-26T18:16:07.985Z,23.20
2022-12-26T18:21:16.934Z,19.65
2022-12-26T18:26:27.534Z,13.98
2022-12-26T18:31:32.159Z,16.20
2022-12-26T18:36:41.130Z,21.63
2022-12-26T18:41:47.134Z,19.52
2022-12-26T18:46:51.974Z,18.25
2022-12-26T18:51:57.755Z,16.88
2022-12-26T18:57:02.149Z,17.45
2022-12-26T19:02:14.933Z,16.10
2022-12-26T19:07:21.329Z,17.20
2022-12-26T19:12:26.238Z,16.52
2022-12-26T19:22:36.679Z,18.08
2022-12-26T19:27:41.611Z,20.42
2022-12-26T19:32:46.043Z,21.42
2022-12-26T19:37:51.853Z,21.30
2022-12-26T19:42:56.111Z,22.48
2022-12-26T19:48:00.654Z,19.70
2022-12-26T19:53:06.377Z,19.23
2022-12-26T19:58:11.105Z,24.05
2022-12-26T20:03:16.824Z,20.15
2022-12-26T20:08:22.707Z,24.58
2022-12-26T20:13:26.936Z,25.98
2022-12-26T20:18:35.624Z,23.45
2022-12-26T20:23:42.072Z,26.13
2022-12-26T20:28:46.606Z,20.38
2022-12-26T20:33:53.435Z,20.38
2022-12-26T20:39:02.872Z,21.48
2022-12-26T20:44:07.798Z,24.83
2022-12-26T20:54:18.690Z,29.27
2022-12-26T20:59:23.788Z,31.40
2022-12-26T21:04:28.037Z,29.15
2022-12-26T21:09:33.703Z,30.45
2022-12-26T21:14:38.216Z,33.10
2022-12-26T21:24:48.833Z,34.85
2022-12-26T21:29:53.332Z,36.53
2022-12-26T21:34:57.804Z,34.45
2022-12-26T21:40:03.877Z,31.58
2022-12-26T21:45:10.651Z,32.85
2022-12-26T21:50:15.217Z,32.40
2022-12-26T21:55:31.157Z,34.33
2022-12-26T22:00:36.446Z,30.75
2022-12-26T22:05:42.999Z,27.33
2022-12-26T22:11:06.995Z,34.90
2022-12-26T22:16:13.836Z,29.55
2022-12-26T22:21:20.599Z,30.38
2022-12-26T22:26:28.093Z,31.27
2022-12-26T22:31:37.505Z,30.52
2022-12-26T22:36:42.902Z,24.73
2022-12-26T22:41:48.703Z,23.10
2022-12-26T22:46:53.160Z,22.83
2022-12-26T22:51:59.227Z,22.27
2022-12-26T22:57:06.388Z,18.40
2022-12-26T23:02:10.958Z,20.38
2022-12-26T23:07:20.017Z,21.50
2022-12-26T23:12:44.534Z,19.35
2022-12-26T23:18:13.538Z,24.97
2022-12-26T23:23:19.105Z,21.73
2022-12-26T23:28:42.369Z,20.63
2022-12-26T23:33:46.908Z,23.27
2022-12-26T23:38:51.840Z,24.30
2022-12-26T23:49:02.350Z,22.42
2022-12-26T23:54:06.720Z,22.65
2022-12-26T23:59:12.325Z,26.77
